Time;durP1;ratioP1;P1;durP2;ratioP2;P2;SDS_P1;SDS_P2;PMS_P1;PMS_P2;Temp;Humidity;BMP_temperature;BMP_pressure;BME280_temperature;BME280_humidity;BME280_pressure;Samples;Min_cycle;Max_cycle;Signal;HPM_P1;HPM_P2
2021/06/25 00:02:19;;;;;;;11.88;9.25;;;17.00;81.80;;;;;;5111140;28;20189;-75
2021/06/25 00:04:46;;;;;;;11.38;9.18;;;17.00;82.20;;;;;;5110704;28;20207;-74
2021/06/25 00:07:13;;;;;;;11.93;9.27;;;17.00;82.20;;;;;;5111638;28;20588;-77
2021/06/25 00:09:39;;;;;;;12.88;10.00;;;17.00;82.40;;;;;;5109171;28;20215;-73
2021/06/25 00:12:09;;;;;;;12.27;10.10;;;17.00;82.60;;;;;;5110740;28;20197;-74
2021/06/25 00:14:37;;;;;;;13.95;10.70;;;16.90;82.70;;;;;;5111022;28;20205;-75
2021/06/25 00:17:05;;;;;;;15.82;10.35;;;16.90;82.80;;;;;;5111566;28;20770;-74
2021/06/25 00:19:32;;;;;;;12.77;10.48;;;16.80;82.90;;;;;;5110940;28;20209;-73
2021/06/25 00:21:59;;;;;;;15.00;10.75;;;16.80;83.20;;;;;;5113264;27;20216;-71
2021/06/25 00:24:26;;;;;;;14.32;10.88;;;16.80;83.40;;;;;;5111656;28;20208;-74
2021/06/25 00:26:53;;;;;;;16.10;10.98;;;16.80;83.60;;;;;;5111862;28;20205;-76
2021/06/25 00:29:20;;;;;;;15.32;10.38;;;16.70;83.70;;;;;;5111610;28;20253;-76
2021/06/25 00:31:49;;;;;;;13.75;11.02;;;16.70;84.00;;;;;;5110503;28;20242;-74
2021/06/25 00:34:17;;;;;;;12.57;11.27;;;16.70;84.10;;;;;;5104997;28;20286;-74
2021/06/25 00:36:44;;;;;;;15.52;11.55;;;16.70;84.30;;;;;;5108673;28;20661;-74
2021/06/25 00:39:11;;;;;;;16.27;11.93;;;16.70;84.50;;;;;;5108366;28;20201;-75
2021/06/25 00:41:38;;;;;;;13.90;11.77;;;16.60;84.60;;;;;;5109463;28;20193;-74
2021/06/25 00:44:05;;;;;;;15.18;12.25;;;16.60;84.70;;;;;;5108861;28;20195;-74
2021/06/25 00:46:32;;;;;;;16.85;11.88;;;16.60;84.90;;;;;;5111369;28;20208;-73
2021/06/25 00:49:01;;;;;;;15.07;12.45;;;16.60;85.00;;;;;;5107535;28;20660;-75
2021/06/25 00:51:28;;;;;;;15.77;11.98;;;16.60;85.30;;;;;;5107320;28;20239;-72
2021/06/25 00:53:55;;;;;;;20.33;12.98;;;16.50;85.30;;;;;;5108741;28;20197;-76
2021/06/25 00:56:22;;;;;;;15.38;13.02;;;16.50;85.80;;;;;;5110549;28;20704;-73
2021/06/25 00:58:51;;;;;;;20.02;13.52;;;16.50;86.10;;;;;;5110348;28;20205;-75
2021/06/25 01:01:18;;;;;;;17.58;13.82;;;16.40;86.30;;;;;;5109474;28;20193;-72
2021/06/25 01:03:44;;;;;;;20.08;13.82;;;16.40;86.60;;;;;;5108917;28;20193;-74
2021/06/25 01:06:13;;;;;;;20.33;14.00;;;16.40;86.90;;;;;;5109491;28;20222;-75
2021/06/25 01:08:42;;;;;;;19.85;13.18;;;16.50;87.20;;;;;;5106851;28;20224;-74
2021/06/25 01:11:09;;;;;;;18.23;13.07;;;16.50;87.30;;;;;;5110378;28;20209;-74
2021/06/25 01:13:38;;;;;;;17.83;13.57;;;16.60;87.50;;;;;;5106780;28;20197;-73
2021/06/25 01:16:06;;;;;;;16.88;13.93;;;16.50;87.60;;;;;;5107505;28;20285;-79
2021/06/25 01:18:33;;;;;;;17.75;14.07;;;16.60;87.80;;;;;;5107028;28;20205;-74
2021/06/25 01:21:02;;;;;;;20.75;14.88;;;16.60;87.80;;;;;;5107987;28;20296;-74
2021/06/25 01:23:29;;;;;;;19.80;14.98;;;16.60;87.90;;;;;;5109033;28;20208;-73
2021/06/25 01:25:57;;;;;;;20.55;14.98;;;16.60;88.10;;;;;;5110374;28;20227;-78
2021/06/25 01:28:23;;;;;;;19.83;15.20;;;16.60;88.20;;;;;;5107769;28;20208;-76
2021/06/25 01:30:50;;;;;;;22.27;17.27;;;16.70;88.50;;;;;;5111565;28;20197;-74
2021/06/25 01:33:19;;;;;;;21.42;16.02;;;16.70;88.70;;;;;;5110864;28;20209;-78
2021/06/25 01:35:47;;;;;;;25.35;17.25;;;16.70;88.80;;;;;;5110819;28;20225;-73
2021/06/25 01:38:16;;;;;;;27.55;18.30;;;16.70;88.90;;;;;;5112367;28;20576;-75
2021/06/25 01:40:45;;;;;;;27.25;18.35;;;16.70;89.00;;;;;;5111888;28;20224;-76
2021/06/25 01:43:13;;;;;;;28.90;18.75;;;16.70;89.80;;;;;;5112017;28;20209;-76
2021/06/25 01:45:41;;;;;;;29.98;19.15;;;16.70;89.30;;;;;;5113379;28;20197;-78
2021/06/25 01:48:09;;;;;;;30.20;20.50;;;16.70;89.40;;;;;;5110093;28;20216;-76
2021/06/25 01:50:39;;;;;;;29.35;20.55;;;16.70;89.50;;;;;;5111292;28;20193;-74
2021/06/25 01:53:09;;;;;;;29.50;20.45;;;16.80;89.60;;;;;;5107940;28;20209;-77
2021/06/25 01:55:42;;;;;;;28.67;20.85;;;16.80;89.50;;;;;;5112438;28;20219;-73
2021/06/25 01:58:13;;;;;;;29.77;20.92;;;16.80;89.50;;;;;;5111163;28;20200;-76
2021/06/25 02:00:42;;;;;;;28.15;19.60;;;16.80;89.60;;;;;;5112479;28;20193;-76
2021/06/25 02:03:09;;;;;;;36.10;21.55;;;16.80;89.80;;;;;;5110390;28;20209;-77
2021/06/25 02:05:36;;;;;;;28.13;19.60;;;16.80;89.80;;;;;;5111227;28;20217;-75
2021/06/25 02:08:03;;;;;;;28.58;20.08;;;16.80;90.00;;;;;;5108724;27;20212;-77
2021/06/25 02:10:30;;;;;;;28.65;20.20;;;16.80;90.00;;;;;;5111504;28;20205;-74
2021/06/25 02:12:58;;;;;;;27.83;19.65;;;16.80;90.00;;;;;;5109200;28;20198;-74
2021/06/25 02:15:25;;;;;;;29.13;19.88;;;16.80;90.00;;;;;;5111594;28;20217;-75
2021/06/25 02:17:52;;;;;;;25.45;19.48;;;16.80;90.00;;;;;;5111034;28;20206;-74
2021/06/25 02:20:19;;;;;;;24.85;19.60;;;16.80;90.00;;;;;;5111131;28;20212;-76
2021/06/25 02:22:46;;;;;;;25.80;18.67;;;16.80;90.00;;;;;;5109809;28;20660;-74
2021/06/25 02:25:14;;;;;;;23.00;17.58;;;16.80;90.00;;;;;;5112833;28;20193;-75
2021/06/25 02:27:42;;;;;;;25.25;17.48;;;16.80;89.80;;;;;;5106561;28;20216;-75
2021/06/25 02:30:16;;;;;;;22.83;17.05;;;16.80;89.80;;;;;;5107153;28;20215;-74
2021/06/25 02:32:43;;;;;;;28.15;18.83;;;16.80;89.70;;;;;;5112445;28;20205;-73
2021/06/25 02:35:11;;;;;;;24.75;18.27;;;16.80;89.60;;;;;;5111557;28;20209;-78
2021/06/25 02:37:38;;;;;;;28.75;18.38;;;16.80;89.60;;;;;;5111560;28;20205;-77
2021/06/25 02:40:08;;;;;;;29.60;19.45;;;16.80;89.50;;;;;;5110302;28;20197;-77
2021/06/25 02:42:35;;;;;;;28.92;19.85;;;16.80;89.40;;;;;;5110248;28;20201;-76
2021/06/25 02:45:03;;;;;;;29.65;20.33;;;16.80;89.30;;;;;;5111522;28;20207;-76
2021/06/25 02:47:32;;;;;;;31.77;20.95;;;16.80;89.30;;;;;;5112288;28;20197;-74
2021/06/25 02:49:59;;;;;;;28.83;20.48;;;16.70;89.20;;;;;;5110634;28;20208;-74
2021/06/25 02:52:26;;;;;;;28.63;20.75;;;16.70;89.20;;;;;;5112228;28;20197;-72
2021/06/25 02:54:53;;;;;;;29.40;20.10;;;16.70;89.10;;;;;;5110809;28;20656;-78
2021/06/25 02:57:20;;;;;;;31.20;21.05;;;16.70;89.20;;;;;;5113073;28;20229;-76
2021/06/25 02:59:47;;;;;;;32.28;21.33;;;16.70;89.20;;;;;;5111769;28;20748;-74
2021/06/25 03:02:13;;;;;;;31.20;21.35;;;16.70;89.20;;;;;;5106727;28;20573;-75
2021/06/25 03:04:42;;;;;;;32.03;21.90;;;16.70;89.20;;;;;;5110335;28;20215;-75
2021/06/25 03:07:09;;;;;;;35.42;21.85;;;16.70;88.90;;;;;;5110887;28;20241;-75
2021/06/25 03:09:35;;;;;;;31.40;20.73;;;16.70;88.80;;;;;;5111075;28;20197;-74
2021/06/25 03:12:02;;;;;;;32.65;21.02;;;16.70;88.60;;;;;;5112614;28;20193;-75
2021/06/25 03:14:29;;;;;;;30.42;21.45;;;16.70;88.50;;;;;;5110446;28;20212;-74
2021/06/25 03:16:56;;;;;;;34.75;22.00;;;16.70;88.50;;;;;;5111408;28;20217;-73
2021/06/25 03:19:23;;;;;;;32.05;22.42;;;16.70;88.40;;;;;;5111888;28;20225;-73
2021/06/25 03:21:51;;;;;;;30.13;21.40;;;16.70;88.50;;;;;;5109996;28;20209;-74
2021/06/25 03:24:18;;;;;;;29.02;21.48;;;16.70;88.60;;;;;;5109000;28;20212;-74
2021/06/25 03:26:45;;;;;;;28.60;20.85;;;16.70;88.60;;;;;;5110033;28;20201;-77
2021/06/25 03:29:12;;;;;;;33.67;21.92;;;16.70;88.60;;;;;;5107689;28;20202;-73
2021/06/25 03:31:44;;;;;;;36.38;22.40;;;16.70;88.70;;;;;;5109438;28;20760;-74
2021/06/25 03:34:11;;;;;;;36.20;23.52;;;16.70;88.60;;;;;;5108057;28;20228;-73
2021/06/25 03:36:38;;;;;;;30.27;22.67;;;16.70;88.70;;;;;;5109400;28;20220;-75
2021/06/25 03:39:07;;;;;;;32.70;21.92;;;16.70;88.90;;;;;;5108978;28;20206;-75
2021/06/25 03:41:34;;;;;;;40.58;23.63;;;16.60;88.90;;;;;;5109626;28;20201;-74
2021/06/25 03:44:01;;;;;;;33.20;23.52;;;16.60;89.10;;;;;;5108475;28;20538;-75
2021/06/25 03:46:28;;;;;;;30.75;22.42;;;16.60;89.30;;;;;;5105737;28;20200;-74
2021/06/25 03:48:55;;;;;;;33.50;23.27;;;16.60;89.50;;;;;;5110796;28;20216;-74
2021/06/25 03:51:22;;;;;;;31.60;22.58;;;16.60;89.70;;;;;;5109321;28;20283;-74
2021/06/25 03:53:49;;;;;;;33.75;23.20;;;16.60;89.80;;;;;;5111102;27;20645;-76
2021/06/25 03:56:18;;;;;;;34.55;23.23;;;16.60;89.90;;;;;;5108272;28;20224;-75
2021/06/25 03:58:47;;;;;;;31.80;22.75;;;16.60;90.00;;;;;;5109957;28;20208;-75
2021/06/25 04:01:14;;;;;;;33.08;22.42;;;16.60;90.00;;;;;;5107463;28;20215;-74
2021/06/25 04:03:44;;;;;;;33.67;22.73;;;16.60;90.10;;;;;;5107560;28;20228;-75
2021/06/25 04:06:11;;;;;;;32.47;21.85;;;16.60;90.20;;;;;;5104921;28;20229;-74
2021/06/25 04:08:38;;;;;;;32.90;20.80;;;16.60;90.30;;;;;;5110517;28;20208;-73
2021/06/25 04:11:06;;;;;;;29.58;21.65;;;16.60;90.30;;;;;;5107312;28;20209;-77
2021/06/25 04:13:35;;;;;;;34.25;20.65;;;16.60;90.40;;;;;;5110164;28;20193;-74
2021/06/25 04:16:03;;;;;;;33.15;21.45;;;16.60;90.40;;;;;;5109765;28;20810;-76
2021/06/25 04:18:30;;;;;;;29.55;21.10;;;16.60;90.50;;;;;;5109959;28;20201;-77
2021/06/25 04:20:58;;;;;;;29.77;21.10;;;16.60;90.60;;;;;;5109473;28;20235;-74
2021/06/25 04:23:25;;;;;;;31.45;20.25;;;16.60;90.70;;;;;;5111247;28;20211;-73
2021/06/25 04:25:52;;;;;;;28.58;20.05;;;16.60;90.80;;;;;;5108350;28;20197;-75
2021/06/25 04:28:19;;;;;;;29.10;20.48;;;16.60;90.80;;;;;;5105444;28;20305;-73
2021/06/25 04:30:48;;;;;;;28.85;20.25;;;16.60;90.80;;;;;;5107350;28;20193;-75
2021/06/25 04:33:15;;;;;;;27.73;20.02;;;16.60;90.80;;;;;;5109607;28;20228;-75
2021/06/25 04:35:43;;;;;;;27.58;20.58;;;16.60;90.80;;;;;;5108846;28;20217;-75
2021/06/25 04:38:10;;;;;;;29.83;20.95;;;16.60;90.90;;;;;;5108862;28;20213;-74
2021/06/25 04:40:39;;;;;;;28.35;19.38;;;16.60;90.90;;;;;;5106916;28;20256;-72
2021/06/25 04:43:07;;;;;;;25.83;19.27;;;16.70;91.00;;;;;;5109870;28;20197;-72
2021/06/25 04:45:35;;;;;;;25.85;19.33;;;16.70;91.10;;;;;;5106783;28;20650;-72
2021/06/25 04:48:04;;;;;;;24.70;19.27;;;16.70;91.20;;;;;;5107819;28;20564;-71
2021/06/25 04:50:31;;;;;;;27.40;18.88;;;16.70;91.20;;;;;;5107961;28;20197;-74
2021/06/25 04:52:58;;;;;;;30.15;20.23;;;16.70;91.30;;;;;;5109267;28;20208;-73
2021/06/25 04:55:25;;;;;;;27.67;20.10;;;16.70;91.30;;;;;;5101218;28;20696;-74
2021/06/25 04:57:52;;;;;;;26.45;19.33;;;16.70;91.40;;;;;;5108267;28;20200;-74
2021/06/25 05:00:20;;;;;;;28.40;18.75;;;16.70;91.40;;;;;;5108437;28;20203;-71
2021/06/25 05:02:48;;;;;;;26.77;20.23;;;16.70;91.50;;;;;;5106786;28;20209;-74
2021/06/25 05:05:17;;;;;;;27.85;19.38;;;16.80;91.60;;;;;;5103954;28;20541;-69
2021/06/25 05:07:44;;;;;;;28.92;19.65;;;16.80;91.60;;;;;;5108408;28;20205;-72
2021/06/25 05:10:12;;;;;;;33.30;18.90;;;16.80;91.70;;;;;;5110340;28;20204;-76
2021/06/25 05:12:39;;;;;;;32.13;18.83;;;16.80;91.80;;;;;;5110602;28;20232;-71
2021/06/25 05:15:07;;;;;;;29.25;19.30;;;16.80;91.80;;;;;;5113178;28;20201;-73
2021/06/25 05:17:34;;;;;;;31.73;20.30;;;16.80;91.80;;;;;;5111350;28;20823;-70
2021/06/25 05:20:01;;;;;;;27.88;18.98;;;16.90;91.90;;;;;;5113945;28;20197;-71
2021/06/25 05:22:30;;;;;;;29.92;19.65;;;16.90;91.90;;;;;;5108863;28;20261;-72
2021/06/25 05:24:57;;;;;;;24.80;19.23;;;16.90;92.00;;;;;;5113570;28;20288;-73
2021/06/25 05:27:24;;;;;;;28.45;19.33;;;16.90;92.10;;;;;;5112035;27;20204;-72
2021/06/25 05:29:51;;;;;;;24.88;17.98;;;16.90;92.20;;;;;;5110565;28;20193;-69
2021/06/25 05:32:18;;;;;;;28.02;19.10;;;16.90;92.20;;;;;;5110249;28;20208;-72
2021/06/25 05:34:45;;;;;;;27.60;19.38;;;17.00;92.30;;;;;;5111417;28;20194;-74
2021/06/25 05:37:12;;;;;;;36.55;20.55;;;17.00;92.30;;;;;;5108986;28;20585;-75
2021/06/25 05:39:41;;;;;;;28.80;20.15;;;17.00;92.30;;;;;;5108999;28;20722;-73
2021/06/25 05:42:09;;;;;;;33.67;19.83;;;17.00;92.30;;;;;;5110774;28;20275;-72
2021/06/25 05:44:36;;;;;;;31.42;20.08;;;17.00;92.30;;;;;;5112511;27;20193;-75
2021/06/25 05:47:03;;;;;;;32.17;19.88;;;17.10;92.30;;;;;;5110121;28;20212;-72
2021/06/25 05:49:30;;;;;;;28.60;19.88;;;17.10;92.30;;;;;;5111833;28;20205;-73
2021/06/25 05:51:57;;;;;;;30.38;19.83;;;17.10;92.40;;;;;;5110041;28;20566;-72
2021/06/25 05:54:24;;;;;;;30.23;19.80;;;17.20;92.50;;;;;;5111992;28;20197;-71
2021/06/25 05:56:53;;;;;;;32.92;19.33;;;17.20;92.50;;;;;;5098610;28;20707;-73
2021/06/25 05:59:19;;;;;;;35.30;21.80;;;17.20;92.50;;;;;;5109839;28;20193;-72
2021/06/25 06:01:46;;;;;;;31.58;20.60;;;17.20;92.60;;;;;;5105977;28;20208;-71
2021/06/25 06:04:13;;;;;;;39.97;21.92;;;17.20;92.60;;;;;;5112059;28;20197;-72
2021/06/25 06:06:40;;;;;;;34.08;21.88;;;17.30;92.70;;;;;;5109331;28;20309;-70
2021/06/25 06:09:07;;;;;;;28.65;21.20;;;17.30;92.60;;;;;;5110937;28;20672;-74
2021/06/25 06:11:34;;;;;;;38.92;21.90;;;17.30;92.70;;;;;;5106685;28;20216;-73
2021/06/25 06:14:02;;;;;;;38.13;21.92;;;17.30;92.70;;;;;;5109745;28;20198;-74
2021/06/25 06:16:29;;;;;;;36.70;21.83;;;17.40;92.70;;;;;;5108583;28;20216;-72
2021/06/25 06:18:56;;;;;;;37.42;20.80;;;17.40;92.80;;;;;;5109202;28;20626;-74
2021/06/25 06:21:23;;;;;;;36.88;21.70;;;17.40;92.90;;;;;;5108855;28;20904;-72
2021/06/25 06:32:12;;;;;;;37.40;23.25;;;17.50;93.20;;;;;;5107500;28;20568;-70
2021/06/25 06:34:40;;;;;;;34.92;23.00;;;17.50;93.20;;;;;;5110197;28;20938;-71
2021/06/25 06:37:07;;;;;;;35.28;22.60;;;17.50;93.30;;;;;;5110134;28;20677;-71
2021/06/25 06:39:34;;;;;;;34.40;23.73;;;17.60;93.30;;;;;;5109849;28;20412;-72
2021/06/25 06:42:00;;;;;;;33.50;23.80;;;18.00;93.40;;;;;;5108555;28;20463;-70
2021/06/25 06:44:29;;;;;;;34.00;23.63;;;18.40;92.90;;;;;;5107496;28;20431;-71
2021/06/25 06:46:56;;;;;;;36.63;24.55;;;18.50;92.50;;;;;;5103863;28;20423;-73
2021/06/25 06:49:22;;;;;;;35.20;24.73;;;18.60;92.30;;;;;;5102972;28;20417;-73
2021/06/25 06:51:49;;;;;;;34.50;24.55;;;18.70;92.60;;;;;;5102823;28;21098;-71
2021/06/25 06:54:16;;;;;;;38.00;24.65;;;18.80;92.20;;;;;;5106762;28;20430;-70
2021/06/25 06:56:43;;;;;;;34.77;24.10;;;18.80;92.20;;;;;;5104981;27;20434;-71
2021/06/25 06:59:10;;;;;;;39.33;24.65;;;18.80;92.20;;;;;;5105909;28;20418;-73
2021/06/25 07:01:38;;;;;;;38.07;25.43;;;18.90;92.20;;;;;;5104331;28;20788;-72
2021/06/25 07:04:07;;;;;;;37.85;25.52;;;18.90;92.20;;;;;;5104317;28;20796;-70
2021/06/25 07:06:34;;;;;;;40.60;25.88;;;18.90;92.20;;;;;;5109142;28;20784;-71
2021/06/25 07:09:00;;;;;;;36.28;25.10;;;18.90;92.30;;;;;;5107458;28;20411;-71
2021/06/25 07:11:27;;;;;;;43.83;24.95;;;19.00;92.50;;;;;;5108649;28;20200;-70
2021/06/25 07:13:54;;;;;;;37.40;24.85;;;18.70;92.80;;;;;;5108792;28;20201;-69
2021/06/25 07:16:21;;;;;;;40.17;24.55;;;18.40;93.20;;;;;;5110564;28;20231;-71
2021/06/25 07:18:49;;;;;;;39.03;24.55;;;18.30;93.50;;;;;;5107414;28;20197;-71
2021/06/25 07:21:17;;;;;;;42.25;24.95;;;18.20;93.80;;;;;;5110961;28;20212;-70
2021/06/25 07:23:44;;;;;;;43.25;24.67;;;18.10;94.00;;;;;;5109077;28;20207;-71
2021/06/25 07:26:11;;;;;;;41.72;24.48;;;18.10;94.20;;;;;;5106597;28;20291;-70
2021/06/25 07:28:38;;;;;;;43.88;24.20;;;18.10;94.50;;;;;;5106057;28;20214;-71
2021/06/25 07:31:05;;;;;;;43.00;24.52;;;18.00;94.70;;;;;;5111201;28;20344;-72
2021/06/25 07:33:32;;;;;;;40.75;23.98;;;18.10;94.90;;;;;;5108746;28;20193;-70
2021/06/25 07:36:00;;;;;;;43.58;25.83;;;18.10;95.10;;;;;;5110398;28;20193;-71
2021/06/25 07:38:27;;;;;;;39.95;24.35;;;18.10;95.40;;;;;;5138735;27;20201;-70
2021/06/25 07:40:54;;;;;;;40.63;25.90;;;18.20;95.50;;;;;;5110760;28;20213;-68
2021/06/25 07:43:21;;;;;;;43.45;24.42;;;18.30;95.70;;;;;;5107741;28;20197;-69
2021/06/25 07:45:48;;;;;;;42.00;24.20;;;18.40;95.80;;;;;;5107663;28;20201;-68
2021/06/25 07:48:15;;;;;;;39.05;24.58;;;18.50;96.00;;;;;;5105615;28;20575;-70
2021/06/25 07:50:43;;;;;;;43.22;25.83;;;18.50;96.10;;;;;;5109658;28;20205;-69
2021/06/25 07:53:11;;;;;;;43.75;24.77;;;18.60;96.10;;;;;;5108423;28;20209;-68
2021/06/25 07:55:42;;;;;;;41.38;23.98;;;18.60;96.10;;;;;;5110111;28;20193;-69
2021/06/25 07:58:11;;;;;;;39.10;22.25;;;18.70;96.20;;;;;;5107345;28;20301;-72
2021/06/25 08:00:38;;;;;;;39.47;20.60;;;18.60;96.20;;;;;;5107545;28;20213;-72
2021/06/25 08:03:05;;;;;;;36.17;20.15;;;18.70;96.30;;;;;;5107830;28;20282;-72
2021/06/25 08:05:32;;;;;;;30.67;18.92;;;18.70;96.40;;;;;;5110408;28;20249;-73
2021/06/25 08:07:59;;;;;;;32.95;18.63;;;18.70;96.50;;;;;;5106913;28;20212;-71
2021/06/25 08:10:27;;;;;;;29.88;18.17;;;18.70;96.60;;;;;;5106562;28;20207;-71
2021/06/25 08:12:54;;;;;;;33.35;17.60;;;18.70;96.60;;;;;;5103791;28;20205;-72
2021/06/25 08:15:21;;;;;;;30.20;18.10;;;18.70;96.70;;;;;;5108344;28;20212;-72
2021/06/25 08:17:48;;;;;;;31.67;17.45;;;18.70;96.80;;;;;;5107903;28;20661;-71
2021/06/25 08:20:15;;;;;;;33.38;19.15;;;18.80;96.90;;;;;;5108677;28;20208;-72
2021/06/25 08:22:42;;;;;;;37.75;19.40;;;18.80;96.90;;;;;;5108628;28;20220;-70
2021/06/25 08:25:09;;;;;;;36.30;18.33;;;18.80;97.00;;;;;;5109823;28;20211;-72
2021/06/25 08:27:37;;;;;;;31.38;17.67;;;18.80;97.00;;;;;;5103469;28;20557;-70
2021/06/25 08:30:05;;;;;;;33.78;18.33;;;18.80;97.10;;;;;;5103799;28;20563;-71
2021/06/25 08:32:32;;;;;;;34.13;19.20;;;18.90;97.30;;;;;;5106659;28;20200;-73
2021/06/25 08:34:59;;;;;;;38.05;18.45;;;18.90;97.30;;;;;;5107819;28;20209;-71
2021/06/25 08:37:25;;;;;;;31.08;18.42;;;18.90;97.40;;;;;;5108029;28;20693;-70
2021/06/25 08:39:52;;;;;;;33.10;18.45;;;19.00;97.50;;;;;;5105012;28;20213;-72
2021/06/25 08:42:20;;;;;;;35.20;19.45;;;19.10;97.60;;;;;;5110654;28;20208;-71
2021/06/25 08:44:48;;;;;;;36.05;22.67;;;19.20;97.60;;;;;;5108483;28;20550;-71
2021/06/25 08:47:15;;;;;;;36.90;21.48;;;19.20;97.40;;;;;;5109298;28;20204;-72
2021/06/25 08:49:46;;;;;;;33.88;22.35;;;19.20;97.30;;;;;;5106978;28;20626;-71
2021/06/25 08:52:13;;;;;;;37.10;21.90;;;19.30;97.20;;;;;;5105582;28;20250;-70
2021/06/25 08:54:40;;;;;;;33.05;21.58;;;19.30;97.10;;;;;;5108214;28;20201;-71
2021/06/25 08:57:09;;;;;;;36.65;21.95;;;19.30;97.10;;;;;;5108408;28;20208;-71
2021/06/25 08:59:36;;;;;;;38.53;22.25;;;19.40;97.00;;;;;;5104260;28;20258;-74
2021/06/25 09:02:05;;;;;;;43.05;23.85;;;19.40;96.90;;;;;;5102353;28;20203;-69
2021/06/25 09:04:34;;;;;;;44.50;27.77;;;19.40;96.80;;;;;;5103036;28;20205;-74
2021/06/25 09:07:02;;;;;;;44.78;26.42;;;19.40;96.70;;;;;;5106208;28;20714;-71
2021/06/25 09:09:43;;;;;;;38.13;25.90;;;19.40;96.60;;;;;;5107009;28;20253;-69
2021/06/25 09:12:14;;;;;;;42.45;26.42;;;19.40;96.60;;;;;;5108606;28;20201;-71
2021/06/25 09:15:03;;;;;;;45.88;28.17;;;19.40;96.60;;;;;;5105749;28;20201;-73
2021/06/25 09:17:32;;;;;;;44.55;27.75;;;19.40;96.50;;;;;;5108951;28;20673;-73
2021/06/25 09:19:59;;;;;;;36.58;25.80;;;19.50;96.50;;;;;;5107941;28;20208;-72
2021/06/25 09:22:26;;;;;;;42.10;28.70;;;19.50;96.40;;;;;;5108864;28;20212;-73
2021/06/25 09:25:01;;;;;;;40.72;28.52;;;19.50;96.40;;;;;;5097764;28;20214;-72
2021/06/25 09:27:29;;;;;;;42.50;29.30;;;19.50;96.40;;;;;;5101245;28;20280;-72
2021/06/25 09:29:56;;;;;;;41.85;28.02;;;19.50;96.40;;;;;;5107862;28;20198;-70
2021/06/25 09:32:37;;;;;;;44.55;27.10;;;19.60;96.40;;;;;;5108449;28;20242;-71
2021/06/25 09:35:18;;;;;;;42.83;29.17;;;19.60;96.30;;;;;;5107123;28;20702;-69
2021/06/25 09:37:47;;;;;;;52.83;31.70;;;19.60;96.40;;;;;;5107904;28;20223;-70
2021/06/25 09:40:16;;;;;;;50.97;33.95;;;19.50;96.50;;;;;;5107385;28;20213;-69
2021/06/25 09:42:44;;;;;;;54.45;35.47;;;19.50;96.80;;;;;;5107850;28;20212;-69
2021/06/25 09:45:13;;;;;;;57.95;35.75;;;19.40;97.30;;;;;;5107433;28;20197;-69
2021/06/25 09:47:43;;;;;;;53.40;37.85;;;19.20;97.70;;;;;;5108651;28;20208;-70
2021/06/25 09:50:15;;;;;;;57.45;37.25;;;19.10;98.10;;;;;;5111048;28;20669;-70
2021/06/25 09:52:54;;;;;;;59.15;37.50;;;19.00;98.50;;;;;;5110884;28;20205;-73
2021/06/25 09:55:22;;;;;;;59.45;37.28;;;18.80;98.80;;;;;;5110048;28;20208;-74
2021/06/25 09:58:19;;;;;;;60.65;37.20;;;18.80;99.20;;;;;;5111555;28;20696;-71
2021/06/25 10:03:34;;;;;;;56.22;35.33;;;18.50;99.90;;;;;;5105204;28;20193;-71
2021/06/25 10:06:09;;;;;;;56.50;35.38;;;18.40;99.90;;;;;;5110416;28;20240;-70
2021/06/25 10:08:36;;;;;;;57.47;33.08;;;18.40;99.90;;;;;;5111299;28;20201;-70
2021/06/25 10:11:04;;;;;;;50.33;28.38;;;18.30;99.90;;;;;;5104702;28;20235;-73
2021/06/25 10:13:35;;;;;;;50.50;26.67;;;18.30;99.90;;;;;;5105096;28;20614;-70
2021/06/25 10:16:02;;;;;;;46.58;25.02;;;18.30;99.90;;;;;;5110240;28;20736;-73
2021/06/25 10:18:35;;;;;;;45.88;24.15;;;18.30;99.90;;;;;;5111786;28;20642;-70
2021/06/25 10:21:04;;;;;;;48.85;23.33;;;18.30;99.90;;;;;;5110916;28;20683;-74
2021/06/25 10:23:33;;;;;;;46.10;23.05;;;18.30;99.90;;;;;;5111597;28;20209;-74
2021/06/25 10:26:06;;;;;;;41.92;22.63;;;18.30;99.90;;;;;;5107702;28;20228;-74
2021/06/25 10:28:33;;;;;;;42.53;23.73;;;18.30;99.90;;;;;;5108095;28;20258;-74
2021/06/25 10:31:00;;;;;;;48.38;23.90;;;18.30;99.90;;;;;;5108952;28;20665;-73
2021/06/25 10:33:29;;;;;;;43.95;23.65;;;18.30;99.90;;;;;;5108199;28;20201;-72
2021/06/25 10:35:56;;;;;;;40.53;24.42;;;18.30;99.90;;;;;;5110940;27;20258;-73
2021/06/25 10:38:27;;;;;;;45.72;24.30;;;18.30;99.90;;;;;;5110280;28;20236;-72
2021/06/25 10:40:56;;;;;;;43.35;24.30;;;18.40;99.90;;;;;;5103516;28;20201;-73
2021/06/25 10:43:49;;;;;;;41.53;24.52;;;18.40;99.90;;;;;;5111858;28;20208;-71
2021/06/25 10:46:36;;;;;;;44.35;22.60;;;18.30;99.90;;;;;;5087873;28;20237;-74
2021/06/25 10:49:07;;;;;;;38.15;22.50;;;18.30;99.90;;;;;;5109581;28;20222;-74
2021/06/25 10:51:36;;;;;;;40.70;22.33;;;18.30;99.90;;;;;;5107451;28;20220;-75
2021/06/25 10:54:18;;;;;;;40.08;21.67;;;18.40;99.90;;;;;;5111739;28;20205;-72
2021/06/25 10:57:06;;;;;;;35.65;20.77;;;18.30;99.90;;;;;;5107484;28;20208;-73
2021/06/25 10:59:43;;;;;;;30.45;17.48;;;18.30;99.90;;;;;;5107263;28;21996;-73
2021/06/25 11:02:11;;;;;;;32.90;15.13;;;18.40;99.90;;;;;;5109724;28;20679;-73
2021/06/25 11:04:43;;;;;;;34.33;13.13;;;18.40;99.90;;;;;;5109120;28;20569;-76
2021/06/25 11:07:13;;;;;;;26.95;12.07;;;18.40;99.90;;;;;;5108529;28;20229;-75
2021/06/25 11:10:02;;;;;;;22.98;12.10;;;18.40;99.90;;;;;;5109023;28;20254;-76
2021/06/25 11:12:34;;;;;;;24.23;11.23;;;18.40;99.90;;;;;;5110673;28;20653;-72
2021/06/25 11:15:30;;;;;;;21.65;11.20;;;18.40;99.90;;;;;;5107623;28;20264;-75
2021/06/25 11:17:58;;;;;;;23.10;11.40;;;18.30;99.90;;;;;;5111317;28;20692;-73
2021/06/25 11:20:28;;;;;;;25.23;11.48;;;18.30;99.90;;;;;;5109372;28;20201;-71
2021/06/25 11:23:05;;;;;;;20.98;10.48;;;18.30;99.90;;;;;;5106437;28;20210;-73
2021/06/25 11:25:43;;;;;;;22.17;11.18;;;18.30;99.90;;;;;;5105933;28;20467;-75
2021/06/25 11:28:21;;;;;;;23.70;10.88;;;18.30;99.90;;;;;;5108241;28;20204;-73
2021/06/25 11:31:06;;;;;;;17.30;10.75;;;18.30;99.90;;;;;;5106261;28;20203;-72
2021/06/25 11:33:37;;;;;;;18.63;10.68;;;18.20;99.90;;;;;;5106485;28;20203;-73
2021/06/25 11:36:27;;;;;;;20.55;12.43;;;18.20;99.90;;;;;;5103196;28;20653;-74
2021/06/25 11:39:02;;;;;;;22.55;12.63;;;18.20;99.90;;;;;;5105838;27;20213;-73
2021/06/25 11:41:34;;;;;;;26.73;12.70;;;18.20;99.90;;;;;;5109422;28;20691;-71
2021/06/25 11:44:03;;;;;;;22.33;13.13;;;18.20;99.90;;;;;;5108292;28;20271;-73
2021/06/25 11:46:30;;;;;;;23.77;13.68;;;18.10;99.90;;;;;;5109212;28;20661;-74
2021/06/25 11:49:01;;;;;;;24.27;13.65;;;18.10;99.90;;;;;;5123218;27;20204;-72
2021/06/25 11:51:35;;;;;;;24.13;13.95;;;18.10;99.90;;;;;;5107280;28;20615;-73
2021/06/25 11:54:04;;;;;;;22.95;14.40;;;18.10;99.90;;;;;;5110503;28;20304;-73
2021/06/25 11:56:33;;;;;;;28.70;14.65;;;18.10;99.90;;;;;;5104577;28;20213;-74
2021/06/25 11:59:02;;;;;;;24.00;14.75;;;18.10;99.90;;;;;;5110759;28;20291;-73
2021/06/25 12:01:30;;;;;;;24.58;16.80;;;18.10;99.90;;;;;;5106872;28;20280;-72
2021/06/25 12:03:59;;;;;;;30.40;17.88;;;18.10;99.90;;;;;;5105744;28;20201;-73
2021/06/25 12:06:26;;;;;;;26.00;17.88;;;18.10;99.90;;;;;;5104034;28;20312;-74
2021/06/25 12:08:56;;;;;;;36.67;20.73;;;18.10;99.90;;;;;;5108356;28;20655;-71
2021/06/25 12:11:25;;;;;;;36.63;21.95;;;18.10;99.90;;;;;;5104658;28;20766;-76
2021/06/25 12:14:01;;;;;;;32.55;20.63;;;18.20;99.90;;;;;;5107278;28;20692;-74
2021/06/25 12:16:29;;;;;;;34.92;23.58;;;18.20;99.90;;;;;;5102662;28;20423;-72
2021/06/25 12:18:56;;;;;;;29.23;22.03;;;18.60;99.90;;;;;;5107915;28;20424;-73
2021/06/25 12:21:24;;;;;;;31.73;23.02;;;18.90;99.90;;;;;;5107312;28;20431;-75
2021/06/25 12:23:54;;;;;;;29.98;22.90;;;19.10;99.90;;;;;;5109821;28;20203;-71
2021/06/25 12:26:22;;;;;;;31.58;21.15;;;18.90;99.90;;;;;;5106978;28;20216;-73
2021/06/25 12:28:50;;;;;;;30.27;21.33;;;18.80;99.90;;;;;;5110016;28;20201;-72
2021/06/25 12:31:21;;;;;;;31.10;22.05;;;18.80;99.90;;;;;;5106237;28;20205;-72
2021/06/25 12:33:49;;;;;;;26.65;18.45;;;18.90;99.90;;;;;;5108455;28;20227;-72
2021/06/25 12:36:17;;;;;;;24.45;18.77;;;18.90;99.90;;;;;;5107124;28;20201;-72
2021/06/25 12:38:46;;;;;;;26.55;18.08;;;19.10;99.90;;;;;;5109637;28;20617;-70
2021/06/25 12:41:14;;;;;;;27.05;15.57;;;19.10;99.90;;;;;;5107575;28;20209;-72
2021/06/25 12:43:43;;;;;;;19.73;12.93;;;19.20;99.90;;;;;;5110307;28;20253;-71
2021/06/25 12:46:13;;;;;;;17.45;10.95;;;19.20;99.90;;;;;;5103325;28;20216;-73
2021/06/25 12:48:46;;;;;;;12.05;9.27;;;19.30;99.90;;;;;;5107665;28;20295;-71